Time;durP1;ratioP1;P1;durP2;ratioP2;P2;SDS_P1;SDS_P2;PMS_P1;PMS_P2;Temp;Humidity;BMP_temperature;BMP_pressure;BME280_temperature;BME280_humidity;BME280_pressure;Samples;Min_cycle;Max_cycle;Signal;HPM_P1;HPM_P2
2023/09/17 00:00:29;;;;;;;5.57;3.95;;;;;;;;;;4978947;28;20030;-76
2023/09/17 00:02:55;;;;;;;5.90;3.85;;;;;;;;;;4984832;28;20030;-75
2023/09/17 00:05:21;;;;;;;7.18;4.28;;;;;;;;;;4982364;28;20100;-76
2023/09/17 00:07:46;;;;;;;7.35;4.18;;;;;;;;;;4982102;28;20022;-76
2023/09/17 00:10:12;;;;;;;6.85;4.25;;;;;;;;;;4980745;28;20046;-76
2023/09/17 00:12:37;;;;;;;9.00;3.97;;;;;;;;;;4981654;28;20027;-76
2023/09/17 00:15:03;;;;;;;5.90;4.00;;;;;;;;;;4980260;28;20022;-76
2023/09/17 00:17:28;;;;;;;6.95;4.22;;;;;;;;;;4978266;28;20037;-76
2023/09/17 00:19:54;;;;;;;7.63;4.10;;;;;;;;;;4975440;28;20315;-76
2023/09/17 00:22:19;;;;;;;8.38;4.30;;;;;;;;;;4985410;28;20085;-76
2023/09/17 00:24:44;;;;;;;8.18;4.20;;;;;;;;;;4983809;28;20062;-76
2023/09/17 00:27:10;;;;;;;6.60;4.00;;;;;;;;;;4981835;28;20058;-76
2023/09/17 00:29:35;;;;;;;5.70;4.03;;;;;;;;;;4982137;28;20397;-76
2023/09/17 00:32:01;;;;;;;6.68;4.03;;;;;;;;;;4981551;28;20023;-76
2023/09/17 00:34:26;;;;;;;5.93;4.00;;;;;;;;;;4979799;28;20023;-76
2023/09/17 00:36:51;;;;;;;8.07;3.65;;;;;;;;;;4980062;28;20054;-76
2023/09/17 00:39:17;;;;;;;6.05;3.95;;;;;;;;;;4981339;28;20026;-76
2023/09/17 00:41:43;;;;;;;6.30;4.20;;;;;;;;;;4981290;28;20117;-75
2023/09/17 00:44:09;;;;;;;9.00;4.32;;;;;;;;;;4981434;28;20058;-76
2023/09/17 00:46:35;;;;;;;8.35;3.97;;;;;;;;;;4981725;28;20022;-76
2023/09/17 00:49:01;;;;;;;6.50;4.00;;;;;;;;;;4975125;28;20108;-76
2023/09/17 00:51:26;;;;;;;9.57;4.25;;;;;;;;;;4972507;28;20442;-76
2023/09/17 00:53:58;;;;;;;8.80;4.20;;;;;;;;;;4979650;28;20035;-76
2023/09/17 00:56:25;;;;;;;6.40;4.00;;;;;;;;;;4981495;28;20027;-76
2023/09/17 00:58:51;;;;;;;7.93;4.05;;;;;;;;;;4981492;28;20034;-76
2023/09/17 01:01:19;;;;;;;7.32;4.20;;;;;;;;;;4980872;28;20022;-76
2023/09/17 01:03:45;;;;;;;7.72;4.10;;;;;;;;;;4981118;28;20029;-76
2023/09/17 01:06:12;;;;;;;6.22;4.13;;;;;;;;;;4981392;28;20046;-76
2023/09/17 01:08:40;;;;;;;7.95;4.07;;;;;;;;;;4980973;28;20035;-76
2023/09/17 01:11:07;;;;;;;7.53;4.10;;;;;;;;;;4979464;28;20030;-76
2023/09/17 01:13:38;;;;;;;7.93;4.30;;;;;;;;;;4981002;28;20070;-75
2023/09/17 01:16:05;;;;;;;11.10;4.10;;;;;;;;;;4984001;28;20325;-77
2023/09/17 01:18:32;;;;;;;8.50;4.35;;;;;;;;;;4981260;28;20506;-76
2023/09/17 01:21:07;;;;;;;8.07;4.20;;;;;;;;;;4977627;28;20081;-76
2023/09/17 01:23:47;;;;;;;8.88;4.10;;;;;;;;;;4974033;28;20035;-76
2023/09/17 01:26:26;;;;;;;8.63;4.32;;;;;;;;;;4970419;28;20094;-75
2023/09/17 01:28:54;;;;;;;8.43;4.50;;;;;;;;;;4979982;28;20370;-76
2023/09/17 01:31:20;;;;;;;8.55;4.18;;;;;;;;;;4984956;28;20138;-77
2023/09/17 01:33:47;;;;;;;6.53;4.32;;;;;;;;;;4983389;28;20318;-75
2023/09/17 01:36:25;;;;;;;8.70;4.47;;;;;;;;;;4985415;28;20142;-76
2023/09/17 01:38:57;;;;;;;8.35;4.47;;;;;;;;;;4984580;28;20072;-77
2023/09/17 01:41:25;;;;;;;7.05;4.13;;;;;;;;;;4985358;28;20101;-78
2023/09/17 01:43:51;;;;;;;8.30;4.70;;;;;;;;;;4971341;28;20041;-78
2023/09/17 01:46:16;;;;;;;10.38;4.75;;;;;;;;;;4984625;28;20054;-78
2023/09/17 01:48:42;;;;;;;6.38;4.20;;;;;;;;;;4971327;28;20251;-78
2023/09/17 01:51:09;;;;;;;7.45;4.32;;;;;;;;;;4975386;28;20247;-78
2023/09/17 01:53:35;;;;;;;8.00;4.60;;;;;;;;;;4978444;28;20050;-75
2023/09/17 01:56:00;;;;;;;9.90;4.88;;;;;;;;;;4984934;28;20211;-77
2023/09/17 01:58:26;;;;;;;6.93;4.50;;;;;;;;;;4983556;28;20031;-77
2023/09/17 02:00:52;;;;;;;7.60;4.80;;;;;;;;;;4983544;28;20331;-77
2023/09/17 02:03:18;;;;;;;6.35;4.25;;;;;;;;;;4982941;28;20030;-78
2023/09/17 02:05:44;;;;;;;8.93;4.50;;;;;;;;;;4984972;28;20026;-77
2023/09/17 02:08:09;;;;;;;8.57;4.93;;;;;;;;;;4983905;28;20034;-77
2023/09/17 02:10:34;;;;;;;6.75;4.55;;;;;;;;;;4984321;28;20043;-77
2023/09/17 02:13:00;;;;;;;9.23;4.80;;;;;;;;;;4983801;28;20030;-77
2023/09/17 02:15:25;;;;;;;6.82;4.40;;;;;;;;;;4984000;28;20030;-77
2023/09/17 02:17:51;;;;;;;6.07;4.40;;;;;;;;;;4983192;28;20026;-77
2023/09/17 02:20:16;;;;;;;7.63;4.68;;;;;;;;;;4979263;28;20257;-77
2023/09/17 02:22:42;;;;;;;7.43;4.50;;;;;;;;;;4983104;28;20043;-77
2023/09/17 02:25:08;;;;;;;9.25;4.40;;;;;;;;;;4981521;28;20271;-77
2023/09/17 02:27:34;;;;;;;7.55;4.70;;;;;;;;;;4981161;28;20337;-76
2023/09/17 02:30:00;;;;;;;9.00;4.85;;;;;;;;;;4983190;28;20266;-77
2023/09/17 02:32:25;;;;;;;7.35;4.45;;;;;;;;;;4983837;28;20022;-76
2023/09/17 02:34:51;;;;;;;7.13;4.30;;;;;;;;;;4984468;28;20090;-77
2023/09/17 02:37:16;;;;;;;9.30;4.35;;;;;;;;;;4983227;28;20098;-77
2023/09/17 02:39:41;;;;;;;8.25;4.38;;;;;;;;;;4983779;28;20019;-76
2023/09/17 02:42:07;;;;;;;6.32;4.22;;;;;;;;;;4982775;28;20019;-77
2023/09/17 02:44:32;;;;;;;7.93;4.65;;;;;;;;;;4984079;28;20023;-77
2023/09/17 02:46:57;;;;;;;8.70;4.35;;;;;;;;;;4983995;28;20041;-77
2023/09/17 02:49:23;;;;;;;7.55;4.20;;;;;;;;;;4979300;28;20096;-76
2023/09/17 02:51:51;;;;;;;6.28;4.28;;;;;;;;;;4986225;28;20026;-76
2023/09/17 02:54:16;;;;;;;8.00;4.30;;;;;;;;;;4981162;28;20027;-77
2023/09/17 02:56:44;;;;;;;6.28;4.13;;;;;;;;;;4986691;28;20032;-77
2023/09/17 02:59:10;;;;;;;7.85;4.22;;;;;;;;;;4982923;28;20022;-77
2023/09/17 03:01:35;;;;;;;6.28;4.05;;;;;;;;;;4983400;28;20469;-78
2023/09/17 03:04:02;;;;;;;9.23;4.30;;;;;;;;;;4983600;28;20041;-77
2023/09/17 03:06:27;;;;;;;6.32;4.10;;;;;;;;;;4983746;28;20045;-77
2023/09/17 03:08:54;;;;;;;8.75;4.22;;;;;;;;;;4983137;28;20314;-78
2023/09/17 03:11:21;;;;;;;6.95;4.20;;;;;;;;;;4981863;28;20065;-77
2023/09/17 03:13:47;;;;;;;5.55;3.85;;;;;;;;;;4983584;28;20038;-77
2023/09/17 03:16:15;;;;;;;6.53;3.83;;;;;;;;;;4983664;28;20311;-77
2023/09/17 03:18:40;;;;;;;8.23;3.92;;;;;;;;;;4982373;28;20323;-77
2023/09/17 03:21:06;;;;;;;5.93;4.20;;;;;;;;;;4966535;28;20031;-77
2023/09/17 03:23:33;;;;;;;6.57;4.25;;;;;;;;;;4982305;28;20039;-77
2023/09/17 03:26:00;;;;;;;5.10;3.80;;;;;;;;;;4982851;28;20322;-77
2023/09/17 03:28:26;;;;;;;6.30;3.83;;;;;;;;;;4981114;28;20027;-77
2023/09/17 03:30:51;;;;;;;7.07;4.15;;;;;;;;;;4982889;28;20073;-77
2023/09/17 03:33:16;;;;;;;6.57;3.67;;;;;;;;;;4983012;28;20023;-77
2023/09/17 03:35:42;;;;;;;7.97;3.60;;;;;;;;;;4983009;28;20046;-77
2023/09/17 03:38:07;;;;;;;7.10;3.50;;;;;;;;;;4982705;28;20097;-76
2023/09/17 03:40:34;;;;;;;8.43;3.80;;;;;;;;;;4981474;28;20026;-77
2023/09/17 03:42:59;;;;;;;5.72;3.50;;;;;;;;;;4982528;28;20041;-77
2023/09/17 03:45:27;;;;;;;7.85;3.20;;;;;;;;;;4981548;28;20034;-76
2023/09/17 03:47:53;;;;;;;7.15;3.60;;;;;;;;;;4982628;28;20102;-77
2023/09/17 03:50:18;;;;;;;5.10;3.60;;;;;;;;;;4977315;28;20030;-77
2023/09/17 03:52:46;;;;;;;12.27;3.47;;;;;;;;;;4973211;28;20030;-77
2023/09/17 03:55:13;;;;;;;6.45;3.80;;;;;;;;;;4981429;28;20019;-77
2023/09/17 03:57:39;;;;;;;6.50;3.60;;;;;;;;;;4981988;28;20084;-77
2023/09/17 04:00:07;;;;;;;6.35;3.60;;;;;;;;;;4979745;28;20138;-78
2023/09/17 04:02:38;;;;;;;5.80;3.58;;;;;;;;;;4980810;28;20051;-76
2023/09/17 04:05:10;;;;;;;5.07;3.50;;;;;;;;;;4979864;28;20454;-76
2023/09/17 04:07:37;;;;;;;5.30;3.60;;;;;;;;;;4978970;28;20357;-76
2023/09/17 04:10:05;;;;;;;9.43;3.67;;;;;;;;;;4980591;28;20026;-76
2023/09/17 04:12:31;;;;;;;6.30;3.60;;;;;;;;;;4982224;28;20480;-76
2023/09/17 04:14:57;;;;;;;5.70;3.80;;;;;;;;;;4982286;28;20034;-77
2023/09/17 04:17:23;;;;;;;7.35;3.92;;;;;;;;;;4979788;28;20023;-76
2023/09/17 04:19:50;;;;;;;8.05;3.70;;;;;;;;;;4978568;28;20025;-76
2023/09/17 04:22:16;;;;;;;6.25;3.90;;;;;;;;;;4980113;28;20086;-76
2023/09/17 04:24:42;;;;;;;5.40;3.92;;;;;;;;;;4980125;28;20034;-76
2023/09/17 04:27:08;;;;;;;8.50;4.32;;;;;;;;;;4979575;28;20030;-76
2023/09/17 04:29:33;;;;;;;7.13;3.95;;;;;;;;;;4979796;28;20042;-76
2023/09/17 04:31:59;;;;;;;6.00;3.47;;;;;;;;;;4975768;28;20031;-76
2023/09/17 04:34:24;;;;;;;6.30;3.38;;;;;;;;;;4987176;28;20027;-76
2023/09/17 04:36:50;;;;;;;6.97;3.67;;;;;;;;;;4968708;28;20323;-76
2023/09/17 04:39:16;;;;;;;7.22;3.60;;;;;;;;;;4979067;28;20357;-77
2023/09/17 04:41:42;;;;;;;5.55;3.65;;;;;;;;;;4965609;28;20039;-76
2023/09/17 04:44:07;;;;;;;4.95;3.45;;;;;;;;;;4970658;28;20038;-77
2023/09/17 04:46:40;;;;;;;6.93;3.70;;;;;;;;;;4977887;28;20031;-76
2023/09/17 04:49:06;;;;;;;8.88;3.58;;;;;;;;;;4977933;28;20023;-76
2023/09/17 04:51:32;;;;;;;7.07;3.53;;;;;;;;;;4975850;28;20039;-76
2023/09/17 04:53:58;;;;;;;6.70;3.60;;;;;;;;;;4980807;28;20038;-76
2023/09/17 04:56:23;;;;;;;5.93;3.78;;;;;;;;;;4980636;28;20053;-76
2023/09/17 04:58:49;;;;;;;6.60;3.60;;;;;;;;;;4979026;28;20094;-76
2023/09/17 05:01:14;;;;;;;6.20;3.50;;;;;;;;;;4986649;28;20023;-76
2023/09/17 05:03:41;;;;;;;5.53;3.47;;;;;;;;;;4983667;28;20077;-77
2023/09/17 05:06:07;;;;;;;9.68;3.70;;;;;;;;;;4980878;28;20427;-77
2023/09/17 05:08:32;;;;;;;5.20;3.55;;;;;;;;;;4980510;28;20069;-77
2023/09/17 05:10:57;;;;;;;7.38;3.55;;;;;;;;;;4979518;28;20022;-76
2023/09/17 05:13:23;;;;;;;7.43;3.55;;;;;;;;;;4979309;28;20319;-77
2023/09/17 05:15:48;;;;;;;6.97;3.90;;;;;;;;;;4979047;28;20110;-76
2023/09/17 05:18:13;;;;;;;6.45;3.90;;;;;;;;;;4978173;28;20030;-77
2023/09/17 05:20:43;;;;;;;6.93;3.65;;;;;;;;;;4976405;28;20023;-77
2023/09/17 05:23:09;;;;;;;5.50;3.50;;;;;;;;;;4975813;28;20337;-77
2023/09/17 05:25:34;;;;;;;5.13;3.80;;;;;;;;;;4979089;28;20050;-77
2023/09/17 05:27:59;;;;;;;4.78;3.50;;;;;;;;;;4980139;28;20023;-77
2023/09/17 05:30:25;;;;;;;5.90;3.40;;;;;;;;;;4978679;28;20030;-76
2023/09/17 05:32:51;;;;;;;7.25;3.50;;;;;;;;;;4976053;28;20031;-76
2023/09/17 05:35:16;;;;;;;4.85;3.42;;;;;;;;;;4978856;28;20079;-76
2023/09/17 05:37:42;;;;;;;7.68;4.20;;;;;;;;;;4976538;28;20034;-76
2023/09/17 05:40:10;;;;;;;6.50;3.58;;;;;;;;;;4976467;28;20219;-77
2023/09/17 05:42:35;;;;;;;5.00;3.50;;;;;;;;;;4977937;28;20043;-77
2023/09/17 05:45:01;;;;;;;5.63;3.50;;;;;;;;;;4977757;28;20049;-77
2023/09/17 05:47:26;;;;;;;5.85;3.90;;;;;;;;;;4973838;28;20478;-77
2023/09/17 05:49:55;;;;;;;6.50;3.67;;;;;;;;;;4971987;28;20038;-76
2023/09/17 05:52:21;;;;;;;5.90;3.50;;;;;;;;;;4977794;28;20027;-77
2023/09/17 05:54:46;;;;;;;8.23;3.88;;;;;;;;;;4979025;28;20270;-77
2023/09/17 05:57:11;;;;;;;6.47;3.63;;;;;;;;;;4977973;28;20023;-76
2023/09/17 05:59:37;;;;;;;6.88;3.58;;;;;;;;;;4979510;28;20305;-77
2023/09/17 06:02:02;;;;;;;5.55;3.47;;;;;;;;;;4977715;28;20490;-77
2023/09/17 06:04:28;;;;;;;5.90;3.58;;;;;;;;;;4978511;28;20065;-76
2023/09/17 06:06:53;;;;;;;4.60;3.15;;;;;;;;;;4972912;28;20039;-77
2023/09/17 06:09:18;;;;;;;4.53;3.10;;;;;;;;;;4978146;28;20346;-77
2023/09/17 06:11:44;;;;;;;9.10;3.30;;;;;;;;;;4977218;28;20034;-77
2023/09/17 06:14:09;;;;;;;9.98;4.05;;;;;;;;;;4978622;28;20346;-76
2023/09/17 06:16:34;;;;;;;6.90;3.17;;;;;;;;;;4981158;28;20054;-76
2023/09/17 06:19:00;;;;;;;4.93;3.10;;;;;;;;;;4980255;28;20093;-76
2023/09/17 06:21:25;;;;;;;5.95;3.30;;;;;;;;;;4973488;28;20023;-76
2023/09/17 06:23:51;;;;;;;5.15;3.25;;;;;;;;;;4978730;28;20023;-77
2023/09/17 06:26:16;;;;;;;4.82;3.20;;;;;;;;;;4981844;28;20023;-76
2023/09/17 06:28:41;;;;;;;6.35;3.33;;;;;;;;;;4983126;28;20038;-76
2023/09/17 06:31:07;;;;;;;5.35;3.25;;;;;;;;;;4982810;28;20042;-77
2023/09/17 06:33:34;;;;;;;7.03;3.08;;;;;;;;;;4982010;28;20093;-76
2023/09/17 06:36:00;;;;;;;5.53;3.08;;;;;;;;;;4981483;28;20030;-76
2023/09/17 06:38:25;;;;;;;6.20;3.38;;;;;;;;;;4977836;28;20257;-75
2023/09/17 06:40:51;;;;;;;6.00;3.28;;;;;;;;;;4982441;28;20698;-76
2023/09/17 06:43:16;;;;;;;5.07;3.05;;;;;;;;;;4978329;28;20051;-76
2023/09/17 06:45:42;;;;;;;6.32;3.25;;;;;;;;;;4980003;28;20061;-76
2023/09/17 06:48:07;;;;;;;5.40;3.10;;;;;;;;;;4981340;28;20053;-77
2023/09/17 06:50:32;;;;;;;5.72;3.35;;;;;;;;;;4976578;28;20031;-76
2023/09/17 06:52:58;;;;;;;6.55;3.30;;;;;;;;;;4978792;28;20027;-76
2023/09/17 06:55:23;;;;;;;8.52;3.28;;;;;;;;;;4978608;28;20058;-77
2023/09/17 06:57:48;;;;;;;5.55;3.35;;;;;;;;;;4982091;28;20035;-76
2023/09/17 07:00:15;;;;;;;6.32;3.53;;;;;;;;;;4982109;28;20027;-77
2023/09/17 07:02:40;;;;;;;5.28;3.20;;;;;;;;;;4981032;28;20026;-77
2023/09/17 07:05:08;;;;;;;9.38;3.40;;;;;;;;;;4979912;28;20033;-77
2023/09/17 07:07:34;;;;;;;5.22;3.40;;;;;;;;;;4978551;28;20035;-76
2023/09/17 07:10:00;;;;;;;6.60;3.60;;;;;;;;;;4979909;28;20078;-76
2023/09/17 07:12:25;;;;;;;6.38;3.47;;;;;;;;;;4981114;28;20322;-76
2023/09/17 07:14:51;;;;;;;8.07;3.50;;;;;;;;;;4981867;28;20098;-76
2023/09/17 07:17:16;;;;;;;5.60;3.30;;;;;;;;;;4981435;28;20054;-77
2023/09/17 07:19:41;;;;;;;8.02;3.40;;;;;;;;;;4977253;28;20031;-77
2023/09/17 07:22:11;;;;;;;6.78;3.53;;;;;;;;;;4981838;28;20275;-76
2023/09/17 07:24:37;;;;;;;5.60;3.30;;;;;;;;;;4981999;28;20022;-77
2023/09/17 07:27:03;;;;;;;5.55;3.10;;;;;;;;;;4978538;28;20107;-77
2023/09/17 07:29:29;;;;;;;5.10;3.40;;;;;;;;;;4982577;28;20041;-76
2023/09/17 07:31:54;;;;;;;6.45;3.38;;;;;;;;;;4980578;28;20090;-77
2023/09/17 07:34:20;;;;;;;6.25;3.50;;;;;;;;;;4980850;28;20058;-77
2023/09/17 07:36:45;;;;;;;4.70;3.15;;;;;;;;;;4979152;28;20042;-77
2023/09/17 07:39:10;;;;;;;5.68;3.35;;;;;;;;;;4980601;28;20331;-76
2023/09/17 07:41:35;;;;;;;6.60;3.58;;;;;;;;;;4979945;28;20042;-76
2023/09/17 07:44:01;;;;;;;5.07;3.40;;;;;;;;;;4979775;28;20042;-76
2023/09/17 07:46:26;;;;;;;5.88;3.25;;;;;;;;;;4980592;28;20026;-76
2023/09/17 07:48:52;;;;;;;9.18;3.30;;;;;;;;;;4979413;28;20042;-77
2023/09/17 07:51:17;;;;;;;7.32;3.50;;;;;;;;;;4973144;28;20049;-77
2023/09/17 07:53:42;;;;;;;5.95;3.55;;;;;;;;;;4979239;28;20087;-77
2023/09/17 07:56:08;;;;;;;5.38;3.05;;;;;;;;;;4979089;28;20054;-77
2023/09/17 07:58:33;;;;;;;8.00;3.50;;;;;;;;;;4980875;28;20330;-76
2023/09/17 08:00:58;;;;;;;8.23;3.72;;;;;;;;;;4980081;28;20034;-77
2023/09/17 08:03:24;;;;;;;5.03;3.50;;;;;;;;;;4980880;28;20307;-76
2023/09/17 08:05:50;;;;;;;8.07;3.65;;;;;;;;;;4978935;28;20308;-77
2023/09/17 08:08:16;;;;;;;8.02;3.65;;;;;;;;;;4979086;28;20337;-76
2023/09/17 08:10:41;;;;;;;6.88;3.50;;;;;;;;;;4979588;28;20050;-77
2023/09/17 08:13:08;;;;;;;7.22;3.38;;;;;;;;;;4976890;28;20030;-76
2023/09/17 08:15:34;;;;;;;6.53;3.78;;;;;;;;;;4977422;28;20041;-77
2023/09/17 08:18:00;;;;;;;6.70;3.42;;;;;;;;;;4980778;28;20215;-76
2023/09/17 08:20:25;;;;;;;6.57;3.50;;;;;;;;;;4974561;28;20342;-76
2023/09/17 08:22:51;;;;;;;6.10;3.60;;;;;;;;;;4979283;28;20606;-77
2023/09/17 08:25:17;;;;;;;5.80;3.08;;;;;;;;;;4977640;28;20045;-76
2023/09/17 08:27:43;;;;;;;5.90;3.13;;;;;;;;;;4979844;28;20038;-76
2023/09/17 08:30:11;;;;;;;5.25;3.38;;;;;;;;;;4979896;28;20026;-77
2023/09/17 08:32:41;;;;;;;6.40;3.55;;;;;;;;;;4979302;28;20039;-77
2023/09/17 08:35:07;;;;;;;7.75;3.20;;;;;;;;;;4978973;28;20050;-77
2023/09/17 08:37:37;;;;;;;6.85;3.55;;;;;;;;;;4978739;28;20215;-77
2023/09/17 08:40:10;;;;;;;6.53;3.30;;;;;;;;;;4979504;28;20209;-76
2023/09/17 08:42:38;;;;;;;7.72;3.40;;;;;;;;;;4977269;28;20066;-77
2023/09/17 08:45:05;;;;;;;7.13;3.70;;;;;;;;;;4979198;28;20023;-77
2023/09/17 08:47:32;;;;;;;7.45;4.32;;;;;;;;;;4978937;28;20058;-76
2023/09/17 08:49:58;;;;;;;9.38;4.88;;;;;;;;;;4972552;28;20383;-77
2023/09/17 08:52:26;;;;;;;9.23;5.40;;;;;;;;;;4972802;28;20361;-77
2023/09/17 08:54:52;;;;;;;11.05;5.20;;;;;;;;;;4977823;28;20062;-76
2023/09/17 08:57:22;;;;;;;8.40;4.53;;;;;;;;;;4978597;28;20031;-77
2023/09/17 09:00:07;;;;;;;6.95;4.28;;;;;;;;;;4977063;28;20069;-76
2023/09/17 09:02:40;;;;;;;6.30;4.10;;;;;;;;;;4976534;28;20109;-75
2023/09/17 09:05:07;;;;;;;9.20;4.25;;;;;;;;;;4979670;28;20094;-76
2023/09/17 09:07:34;;;;;;;7.75;4.10;;;;;;;;;;4976010;28;20035;-76
2023/09/17 09:10:01;;;;;;;6.35;3.45;;;;;;;;;;4979955;28;20019;-76
2023/09/17 09:12:27;;;;;;;6.13;3.55;;;;;;;;;;4977563;28;20360;-76
2023/09/17 09:14:53;;;;;;;9.00;4.00;;;;;;;;;;4979096;28;20507;-76
2023/09/17 09:17:19;;;;;;;5.30;3.80;;;;;;;;;;4976018;28;20039;-76
2023/09/17 09:19:45;;;;;;;6.75;4.10;;;;;;;;;;4976754;28;20310;-76
2023/09/17 09:22:10;;;;;;;8.55;3.55;;;;;;;;;;4975439;28;20036;-76
2023/09/17 09:24:41;;;;;;;8.60;3.47;;;;;;;;;;4979472;28;20023;-75
2023/09/17 09:27:07;;;;;;;6.57;3.42;;;;;;;;;;4975158;28;20482;-76
2023/09/17 09:29:33;;;;;;;5.53;3.40;;;;;;;;;;4974290;28;20744;-76
2023/09/17 09:31:59;;;;;;;6.40;3.33;;;;;;;;;;4977747;28;20097;-75
2023/09/17 09:34:27;;;;;;;5.28;3.25;;;;;;;;;;4975044;28;20437;-76
2023/09/17 09:36:54;;;;;;;6.45;3.10;;;;;;;;;;4977827;28;20312;-76
2023/09/17 09:39:20;;;;;;;5.90;3.20;;;;;;;;;;4979039;28;20063;-76
2023/09/17 09:41:46;;;;;;;4.30;3.05;;;;;;;;;;4979211;28;20078;-77
2023/09/17 09:44:12;;;;;;;6.72;3.33;;;;;;;;;;4978558;28;20051;-76
2023/09/17 09:46:37;;;;;;;5.45;3.35;;;;;;;;;;4979736;28;20046;-76
2023/09/17 09:49:03;;;;;;;6.20;2.95;;;;;;;;;;4976991;28;20102;-75
2023/09/17 09:51:31;;;;;;;6.03;3.10;;;;;;;;;;4975934;28;20054;-75
2023/09/17 09:53:57;;;;;;;8.68;3.10;;;;;;;;;;4984077;28;20329;-75
2023/09/17 09:56:27;;;;;;;6.53;3.40;;;;;;;;;;4982806;28;20039;-75
2023/09/17 09:58:56;;;;;;;6.93;3.20;;;;;;;;;;4982431;28;20034;-75
2023/09/17 10:01:22;;;;;;;4.95;3.13;;;;;;;;;;4981912;28;20031;-75
2023/09/17 10:03:48;;;;;;;6.18;3.10;;;;;;;;;;4981160;28;20251;-75
2023/09/17 10:06:14;;;;;;;5.90;3.15;;;;;;;;;;4983579;28;20027;-75
2023/09/17 10:08:40;;;;;;;7.03;3.20;;;;;;;;;;4976814;28;20139;-75
2023/09/17 10:11:09;;;;;;;5.85;3.60;;;;;;;;;;4980791;28;20037;-75
2023/09/17 10:13:35;;;;;;;8.27;3.33;;;;;;;;;;4980773;28;20043;-75
2023/09/17 10:16:02;;;;;;;4.93;3.03;;;;;;;;;;4980937;28;20223;-75
2023/09/17 10:18:29;;;;;;;5.05;3.00;;;;;;;;;;4977967;28;20041;-75
2023/09/17 10:20:56;;;;;;;7.78;3.38;;;;;;;;;;4980901;28;20035;-75
2023/09/17 10:23:23;;;;;;;5.80;2.90;;;;;;;;;;4981607;28;20030;-75
2023/09/17 10:25:50;;;;;;;5.88;3.10;;;;;;;;;;4982658;28;20030;-74
2023/09/17 10:28:17;;;;;;;4.95;3.30;;;;;;;;;;4982651;28;20118;-75
2023/09/17 10:30:45;;;;;;;7.63;3.08;;;;;;;;;;4980569;28;20284;-75
2023/09/17 10:33:11;;;;;;;4.97;3.03;;;;;;;;;;4983322;28;20054;-76
2023/09/17 10:35:38;;;;;;;5.13;3.20;;;;;;;;;;4986735;28;20106;-75
2023/09/17 10:38:06;;;;;;;6.45;3.30;;;;;;;;;;4982075;28;20086;-75
2023/09/17 10:40:34;;;;;;;4.85;2.90;;;;;;;;;;4981526;28;20090;-76
2023/09/17 10:43:01;;;;;;;5.95;3.13;;;;;;;;;;4982548;28;20089;-76
2023/09/17 10:45:32;;;;;;;6.47;3.03;;;;;;;;;;4980987;28;20245;-75
2023/09/17 10:47:59;;;;;;;6.80;3.28;;;;;;;;;;4976010;28;20042;-76
2023/09/17 10:50:27;;;;;;;8.57;3.65;;;;;;;;;;4980662;28;20230;-75
2023/09/17 10:52:53;;;;;;;7.32;3.60;;;;;;;;;;4978989;28;20041;-75
2023/09/17 10:55:21;;;;;;;7.78;3.42;;;;;;;;;;4982846;28;20026;-75
2023/09/17 10:57:55;;;;;;;6.68;3.20;;;;;;;;;;4981996;28;20030;-74
2023/09/17 11:00:22;;;;;;;6.90;3.28;;;;;;;;;;4981531;28;20035;-75
2023/09/17 11:02:55;;;;;;;6.72;3.90;;;;;;;;;;4976000;28;20102;-75
2023/09/17 11:05:24;;;;;;;5.55;3.20;;;;;;;;;;4980493;28;20239;-75
2023/09/17 11:07:52;;;;;;;6.60;3.00;;;;;;;;;;4977713;28;20465;-75
2023/09/17 11:10:18;;;;;;;4.75;2.85;;;;;;;;;;4979835;28;20043;-76
2023/09/17 11:12:43;;;;;;;8.93;3.10;;;;;;;;;;4979760;28;20669;-75
2023/09/17 11:15:10;;;;;;;7.05;2.90;;;;;;;;;;4978265;28;20045;-78
2023/09/17 11:17:35;;;;;;;5.10;2.85;;;;;;;;;;4979102;28;20133;-75
2023/09/17 11:20:07;;;;;;;6.63;2.90;;;;;;;;;;4979154;28;20071;-74
2023/09/17 11:22:36;;;;;;;5.70;2.90;;;;;;;;;;4981664;28;20015;-73
2023/09/17 11:25:03;;;;;;;5.53;3.00;;;;;;;;;;4981012;28;20022;-75
2023/09/17 11:27:49;;;;;;;5.10;3.08;;;;;;;;;;4980426;28;20109;-79
2023/09/17 11:30:22;;;;;;;5.68;3.00;;;;;;;;;;4979566;28;20077;-76
2023/09/17 11:32:54;;;;;;;5.53;2.80;;;;;;;;;;4980985;28;20098;-75
2023/09/17 11:35:24;;;;;;;6.05;3.40;;;;;;;;;;4979941;28;20030;-75
2023/09/17 11:37:51;;;;;;;7.30;3.28;;;;;;;;;;4981077;28;20054;-76
2023/09/17 11:40:18;;;;;;;5.28;2.80;;;;;;;;;;4979064;28;20442;-79
2023/09/17 11:42:45;;;;;;;5.90;3.05;;;;;;;;;;4974792;28;20042;-79
2023/09/17 11:45:11;;;;;;;4.57;3.00;;;;;;;;;;4980038;28;20149;-78
2023/09/17 11:47:38;;;;;;;6.38;2.90;;;;;;;;;;4980040;28;20034;-78
2023/09/17 11:50:07;;;;;;;5.63;2.92;;;;;;;;;;4976694;28;20194;-77
2023/09/17 11:52:33;;;;;;;4.43;2.75;;;;;;;;;;4975461;28;20066;-77
2023/09/17 11:55:06;;;;;;;7.25;3.00;;;;;;;;;;4981554;28;20026;-77
2023/09/17 11:57:32;;;;;;;5.32;3.08;;;;;;;;;;4980957;28;20069;-78
2023/09/17 11:59:58;;;;;;;6.10;3.05;;;;;;;;;;4980386;28;20031;-78
2023/09/17 12:02:24;;;;;;;6.05;2.90;;;;;;;;;;4980866;28;20411;-77
2023/09/17 12:04:51;;;;;;;6.05;2.90;;;;;;;;;;4981302;28;20038;-77
2023/09/17 12:07:16;;;;;;;5.97;3.10;;;;;;;;;;4980331;28;20636;-77
2023/09/17 12:12:11;;;;;;;7.22;3.30;;;;;;;;;;4979509;28;20101;-77
2023/09/17 12:14:36;;;;;;;7.70;3.10;;;;;;;;;;4979169;28;20023;-78
2023/09/17 12:17:03;;;;;;;5.03;3.00;;;;;;;;;;4980652;28;20034;-77
2023/09/17 12:19:29;;;;;;;4.80;3.10;;;;;;;;;;4980116;28;20039;-77
2023/09/17 12:21:56;;;;;;;4.90;2.90;;;;;;;;;;4980298;28;20104;-77
2023/09/17 12:24:37;;;;;;;6.53;3.30;;;;;;;;;;4974860;28;20113;-77
2023/09/17 12:29:47;;;;;;;5.32;3.38;;;;;;;;;;4977588;28;20254;-78
2023/09/17 12:32:15;;;;;;;5.97;3.10;;;;;;;;;;4979526;28;20094;-76
2023/09/17 12:34:41;;;;;;;7.57;3.17;;;;;;;;;;4979277;28;20046;-77
2023/09/17 12:37:06;;;;;;;5.85;3.30;;;;;;;;;;4979578;28;20037;-79
2023/09/17 12:39:32;;;;;;;4.95;2.97;;;;;;;;;;4979828;28;20038;-77
2023/09/17 12:41:57;;;;;;;5.90;3.30;;;;;;;;;;4978362;28;20054;-79
2023/09/17 12:44:26;;;;;;;6.90;3.50;;;;;;;;;;4980683;28;20047;-77
2023/09/17 12:46:51;;;;;;;6.65;3.40;;;;;;;;;;4979861;28;20031;-77
2023/09/17 12:49:17;;;;;;;7.43;3.00;;;;;;;;;;4978621;28;20042;-79
2023/09/17 12:51:43;;;;;;;6.05;2.95;;;;;;;;;;4980180;28;20258;-77
2023/09/17 12:54:09;;;;;;;8.90;3.30;;;;;;;;;;4977948;28;20027;-77
2023/09/17 12:56:36;;;;;;;7.75;3.58;;;;;;;;;;4980135;28;20026;-78
2023/09/17 12:59:03;;;;;;;6.15;3.38;;;;;;;;;;4984333;28;20109;-75
2023/09/17 13:01:30;;;;;;;7.50;3.20;;;;;;;;;;4976710;28;20363;-75
2023/09/17 13:04:02;;;;;;;4.85;3.05;;;;;;;;;;4981787;28;20085;-77
2023/09/17 13:06:29;;;;;;;5.20;3.17;;;;;;;;;;4978204;28;20031;-73
2023/09/17 13:08:55;;;;;;;8.27;3.30;;;;;;;;;;4980386;28;20031;-78
2023/09/17 13:11:23;;;;;;;8.25;3.42;;;;;;;;;;4977960;28;20114;-79
2023/09/17 13:13:50;;;;;;;7.10;3.30;;;;;;;;;;4979876;28;20077;-79
2023/09/17 13:16:16;;;;;;;7.93;3.22;;;;;;;;;;4979710;28;20037;-78
2023/09/17 13:18:42;;;;;;;7.90;3.60;;;;;;;;;;4981143;28;20094;-81
2023/09/17 13:21:08;;;;;;;7.00;3.70;;;;;;;;;;4980634;28;20031;-77
2023/09/17 13:23:37;;;;;;;8.95;3.63;;;;;;;;;;4977774;28;20038;-78
2023/09/17 13:26:02;;;;;;;7.95;3.30;;;;;;;;;;4980797;28;20450;-80
2023/09/17 13:28:28;;;;;;;8.68;3.17;;;;;;;;;;4981118;28;20105;-81
2023/09/17 13:30:53;;;;;;;7.90;3.10;;;;;;;;;;4980052;28;20045;-79
2023/09/17 13:33:19;;;;;;;9.85;3.70;;;;;;;;;;4981462;28;20200;-78
2023/09/17 13:35:51;;;;;;;6.55;3.60;;;;;;;;;;4968677;28;20038;-78
2023/09/17 13:38:20;;;;;;;6.90;3.55;;;;;;;;;;4978209;28;20030;-77
2023/09/17 13:40:50;;;;;;;7.97;3.20;;;;;;;;;;4978948;28;20038;-77
2023/09/17 13:43:16;;;;;;;7.93;3.03;;;;;;;;;;4981421;28;20039;-78
2023/09/17 13:45:58;;;;;;;10.05;3.55;;;;;;;;;;4980867;28;20054;-76
2023/09/17 13:48:24;;;;;;;6.70;3.00;;;;;;;;;;4981155;28;20087;-78
2023/09/17 13:50:50;;;;;;;7.72;3.38;;;;;;;;;;4981385;28;20046;-77
2023/09/17 13:53:16;;;;;;;7.10;3.20;;;;;;;;;;4975136;28;20024;-76
2023/09/17 13:55:42;;;;;;;13.88;4.65;;;;;;;;;;4972209;28;20038;-76
2023/09/17 13:58:08;;;;;;;7.07;3.40;;;;;;;;;;4974820;28;20038;-76
2023/09/17 14:00:34;;;;;;;8.23;3.13;;;;;;;;;;4979299;28;20034;-77
2023/09/17 14:03:04;;;;;;;7.05;3.13;;;;;;;;;;4978119;28;20031;-77
2023/09/17 14:05:33;;;;;;;7.40;3.22;;;;;;;;;;4974072;28;20035;-76
2023/09/17 14:07:59;;;;;;;7.85;3.08;;;;;;;;;;4978814;28;20023;-76
2023/09/17 14:10:25;;;;;;;9.05;3.13;;;;;;;;;;4976962;28;20466;-77
2023/09/17 14:12:50;;;;;;;6.55;3.33;;;;;;;;;;4980579;28;20061;-77
2023/09/17 14:15:15;;;;;;;6.85;3.10;;;;;;;;;;4979763;28;20023;-76
2023/09/17 14:17:41;;;;;;;7.40;3.30;;;;;;;;;;4979462;28;20065;-77
2023/09/17 14:20:06;;;;;;;7.40;3.20;;;;;;;;;;4980531;28;20308;-76
2023/09/17 14:22:32;;;;;;;10.32;3.15;;;;;;;;;;4978400;28;20087;-76
2023/09/17 14:24:57;;;;;;;6.82;3.33;;;;;;;;;;4971470;28;20015;-76
2023/09/17 14:27:23;;;;;;;6.90;2.97;;;;;;;;;;4980501;28;20315;-78
2023/09/17 14:29:48;;;;;;;8.00;3.17;;;;;;;;;;4980257;28;20030;-77
2023/09/17 14:32:13;;;;;;;6.75;3.38;;;;;;;;;;4975823;28;20027;-77
2023/09/17 14:34:39;;;;;;;8.45;3.20;;;;;;;;;;4972545;28;20030;-77
2023/09/17 14:37:04;;;;;;;6.95;3.20;;;;;;;;;;4973053;28;20023;-76
2023/09/17 14:39:29;;;;;;;7.07;3.40;;;;;;;;;;4978113;28;20039;-77
2023/09/17 14:41:55;;;;;;;7.30;3.58;;;;;;;;;;4969350;28;20035;-76
2023/09/17 14:44:20;;;;;;;7.25;3.20;;;;;;;;;;4975263;28;20054;-76